Time;durP1;ratioP1;P1;durP2;ratioP2;P2;SDS_P1;SDS_P2;PMS_P1;PMS_P2;Temp;Humidity;BMP_temperature;BMP_pressure;BME280_temperature;BME280_humidity;BME280_pressure;Samples;Min_cycle;Max_cycle;Signal;HPM_P1;HPM_P2
2022/09/10 00:01:46;;;;;;;2.70;1.90;;;18.50;99.90;;;;;;6128334;23;20898;-76
2022/09/10 00:04:15;;;;;;;4.83;2.40;;;18.50;99.90;;;;;;6127737;23;20453;-76
2022/09/10 00:06:43;;;;;;;6.43;5.13;;;18.50;99.90;;;;;;6127053;23;20445;-75
2022/09/10 00:09:12;;;;;;;2.80;2.00;;;18.50;99.90;;;;;;6127728;23;20445;-77
2022/09/10 00:11:41;;;;;;;3.37;2.90;;;18.50;99.90;;;;;;6127950;23;20461;-77
2022/09/10 00:14:12;;;;;;;3.00;2.17;;;18.50;99.90;;;;;;6127744;23;20768;-77
2022/09/10 00:16:39;;;;;;;4.40;2.37;;;18.50;99.90;;;;;;6126682;23;20453;-77
2022/09/10 00:19:07;;;;;;;2.60;2.40;;;18.50;99.90;;;;;;6126766;23;20525;-77
2022/09/10 00:21:34;;;;;;;3.47;3.00;;;18.50;99.90;;;;;;6128384;23;20441;-77
2022/09/10 00:24:01;;;;;;;6.13;3.20;;;18.40;99.90;;;;;;6127136;23;20528;-77
2022/09/10 00:26:38;;;;;;;2.73;2.37;;;18.40;99.90;;;;;;6128091;23;20430;-77
2022/09/10 00:29:05;;;;;;;3.77;3.47;;;18.40;99.90;;;;;;6127753;23;20936;-77
2022/09/10 00:31:34;;;;;;;6.07;2.60;;;18.40;99.90;;;;;;6127860;23;20445;-77
2022/09/10 00:34:05;;;;;;;3.50;2.17;;;18.40;99.90;;;;;;6127509;23;20471;-77
2022/09/10 00:36:36;;;;;;;5.00;3.80;;;18.40;99.90;;;;;;6126734;23;20441;-76
2022/09/10 00:39:05;;;;;;;2.10;1.80;;;18.40;99.90;;;;;;6126825;23;20972;-75
2022/09/10 00:41:38;;;;;;;3.13;2.40;;;18.40;99.90;;;;;;6128215;23;20902;-76
2022/09/10 00:44:08;;;;;;;2.70;2.50;;;18.30;99.90;;;;;;6126465;23;20497;-75
2022/09/10 00:46:40;;;;;;;3.93;3.20;;;18.30;99.90;;;;;;6126844;23;20444;-75
2022/09/10 00:49:16;;;;;;;2.40;2.30;;;18.30;99.90;;;;;;6125987;23;20565;-78
2022/09/10 00:51:48;;;;;;;2.60;2.40;;;18.30;99.90;;;;;;6127222;23;20517;-75
2022/09/10 00:54:19;;;;;;;2.47;2.27;;;18.30;99.90;;;;;;6126595;23;20477;-77
2022/09/10 00:56:55;;;;;;;6.83;4.50;;;18.30;99.90;;;;;;6127731;23;20470;-77
2022/09/10 00:59:27;;;;;;;3.93;3.53;;;18.30;99.90;;;;;;6116709;23;20444;-76
2022/09/10 01:01:55;;;;;;;4.73;4.20;;;18.30;99.90;;;;;;6145160;23;20442;-77
2022/09/10 01:04:23;;;;;;;3.43;2.30;;;18.30;99.90;;;;;;6127836;23;20438;-77
2022/09/10 01:06:51;;;;;;;2.30;2.20;;;18.30;99.90;;;;;;6134649;23;20466;-76
2022/09/10 01:09:20;;;;;;;3.20;2.00;;;18.20;99.90;;;;;;6126420;23;20474;-77
2022/09/10 01:12:04;;;;;;;4.17;2.47;;;18.20;99.90;;;;;;6121619;23;20469;-77
2022/09/10 01:14:53;;;;;;;2.77;2.30;;;18.20;99.90;;;;;;6138803;23;20422;-77
2022/09/10 01:17:29;;;;;;;3.63;1.90;;;18.20;99.90;;;;;;6127000;23;20442;-77
2022/09/10 01:20:32;;;;;;;2.00;1.90;;;18.10;99.90;;;;;;6127659;23;20910;-76
2022/09/10 01:23:22;;;;;;;2.10;1.73;;;18.10;99.90;;;;;;6097003;23;20515;-76
2022/09/10 01:26:02;;;;;;;2.80;2.50;;;18.10;99.90;;;;;;6126805;23;20739;-77
2022/09/10 01:28:36;;;;;;;2.33;2.13;;;18.10;99.90;;;;;;6127639;23;20488;-77
2022/09/10 01:31:10;;;;;;;3.53;2.30;;;18.10;99.90;;;;;;6126341;23;20843;-77
2022/09/10 01:33:46;;;;;;;3.40;2.43;;;18.10;99.90;;;;;;6126829;23;20797;-76
2022/09/10 01:36:19;;;;;;;2.60;2.40;;;18.10;99.90;;;;;;6125974;23;20514;-76
2022/09/10 01:38:51;;;;;;;2.47;2.27;;;18.10;99.90;;;;;;6135597;23;20798;-76
2022/09/10 01:41:24;;;;;;;2.90;2.30;;;18.00;99.90;;;;;;6114633;23;20428;-77
2022/09/10 01:44:01;;;;;;;5.80;2.40;;;18.00;99.90;;;;;;6126853;23;20493;-76
2022/09/10 01:46:45;;;;;;;4.60;2.13;;;18.00;99.90;;;;;;6096935;23;20437;-77
2022/09/10 01:49:27;;;;;;;2.70;2.50;;;18.00;99.90;;;;;;6097040;23;20522;-76
2022/09/10 01:52:14;;;;;;;2.50;2.30;;;18.00;99.90;;;;;;6097547;23;20435;-76
2022/09/10 01:55:00;;;;;;;2.17;2.07;;;17.90;99.90;;;;;;6098698;23;20459;-76
2022/09/10 01:57:34;;;;;;;4.30;2.40;;;17.90;99.90;;;;;;6126424;23;20493;-76
2022/09/10 02:00:13;;;;;;;2.43;2.23;;;17.90;99.90;;;;;;6126966;23;20937;-77
2022/09/10 02:02:47;;;;;;;3.17;2.40;;;17.90;99.90;;;;;;6126465;23;20500;-76
2022/09/10 02:05:19;;;;;;;2.53;2.30;;;17.90;99.90;;;;;;6119196;23;20440;-77
2022/09/10 02:07:48;;;;;;;4.33;2.13;;;17.80;99.90;;;;;;6126616;23;20524;-77
2022/09/10 02:10:15;;;;;;;4.57;2.70;;;17.80;99.90;;;;;;6127036;23;20969;-76
2022/09/10 02:12:45;;;;;;;2.07;1.97;;;17.80;99.90;;;;;;6132913;23;20476;-76
2022/09/10 02:15:15;;;;;;;4.63;2.50;;;17.80;99.90;;;;;;6126635;23;20793;-76
2022/09/10 02:17:43;;;;;;;3.63;2.33;;;17.80;99.90;;;;;;6126492;23;20434;-76
2022/09/10 02:20:13;;;;;;;6.23;2.17;;;17.80;99.90;;;;;;6127114;23;20519;-76
2022/09/10 02:22:44;;;;;;;2.87;2.60;;;17.80;99.90;;;;;;6125930;23;20438;-77
2022/09/10 02:25:15;;;;;;;3.17;2.00;;;17.80;99.90;;;;;;6129991;23;20436;-76
2022/09/10 02:27:42;;;;;;;2.30;2.00;;;17.80;99.90;;;;;;6111938;23;20477;-76
2022/09/10 02:30:19;;;;;;;2.37;2.17;;;17.80;99.90;;;;;;6132970;23;20935;-77
2022/09/10 02:32:46;;;;;;;2.03;1.93;;;17.80;99.90;;;;;;6113816;23;20508;-76
2022/09/10 02:35:16;;;;;;;2.70;2.47;;;17.80;99.90;;;;;;6126509;23;20469;-75
2022/09/10 02:37:43;;;;;;;2.87;2.50;;;17.80;99.90;;;;;;6125671;23;20779;-77
2022/09/10 02:40:11;;;;;;;2.90;2.60;;;17.80;99.90;;;;;;6126579;23;20445;-76
2022/09/10 02:42:38;;;;;;;3.43;2.20;;;17.70;99.90;;;;;;6110013;23;20440;-74
2022/09/10 02:45:07;;;;;;;2.70;2.23;;;17.70;99.90;;;;;;6147445;23;20445;-78
2022/09/10 02:47:35;;;;;;;3.07;2.60;;;17.70;99.90;;;;;;6126687;23;20515;-76
2022/09/10 02:50:02;;;;;;;2.20;2.00;;;17.70;99.90;;;;;;6126200;23;20430;-76
2022/09/10 02:52:29;;;;;;;3.67;2.30;;;17.70;99.90;;;;;;6126776;23;20469;-77
2022/09/10 02:54:56;;;;;;;4.00;3.10;;;17.70;99.90;;;;;;6125567;23;21000;-77
2022/09/10 02:57:23;;;;;;;3.53;3.23;;;17.70;99.90;;;;;;6126315;23;20492;-75
2022/09/10 02:59:50;;;;;;;3.60;2.80;;;17.70;99.90;;;;;;6126288;23;20477;-77
2022/09/10 03:02:17;;;;;;;2.73;2.53;;;17.70;99.90;;;;;;6126005;23;20444;-76
2022/09/10 03:04:46;;;;;;;2.93;2.70;;;17.60;99.90;;;;;;6124803;23;20438;-76
2022/09/10 03:07:18;;;;;;;2.23;2.03;;;17.60;99.90;;;;;;6126707;23;20510;-76
2022/09/10 03:09:50;;;;;;;4.37;2.93;;;17.60;99.90;;;;;;6125871;23;20436;-74
2022/09/10 03:12:17;;;;;;;1.97;1.83;;;17.60;99.90;;;;;;6114645;23;20440;-75
2022/09/10 03:14:46;;;;;;;3.23;2.27;;;17.60;99.90;;;;;;6124176;23;20476;-77
2022/09/10 03:17:13;;;;;;;2.10;1.90;;;17.60;99.90;;;;;;6125586;23;20924;-77
2022/09/10 03:19:40;;;;;;;4.67;3.27;;;17.60;99.90;;;;;;6126597;23;20442;-77
2022/09/10 03:22:11;;;;;;;3.07;2.87;;;17.60;99.90;;;;;;6126172;23;20429;-77
2022/09/10 03:24:38;;;;;;;7.57;3.37;;;17.60;99.90;;;;;;6126685;23;20441;-76
2022/09/10 03:27:07;;;;;;;5.10;4.70;;;17.50;99.90;;;;;;6120398;23;20953;-77
2022/09/10 03:29:37;;;;;;;4.60;4.20;;;17.50;99.90;;;;;;6126433;23;20524;-77
2022/09/10 03:32:04;;;;;;;4.77;3.77;;;17.50;99.90;;;;;;6112838;23;20731;-77
2022/09/10 03:34:31;;;;;;;3.43;2.90;;;17.50;99.90;;;;;;6125898;23;20438;-75
2022/09/10 03:37:01;;;;;;;8.10;5.07;;;17.50;99.90;;;;;;6113577;23;20445;-78
2022/09/10 03:39:32;;;;;;;3.67;3.40;;;17.50;99.90;;;;;;6145969;23;20976;-76
2022/09/10 03:41:59;;;;;;;6.10;4.63;;;17.50;99.90;;;;;;6124857;23;20441;-76
2022/09/10 03:44:26;;;;;;;6.00;5.47;;;17.50;99.90;;;;;;6125283;23;20442;-76
2022/09/10 03:46:55;;;;;;;15.53;10.53;;;17.50;99.90;;;;;;6113546;23;20441;-76
2022/09/10 03:49:22;;;;;;;16.00;12.80;;;17.40;99.90;;;;;;6126108;23;20503;-75
2022/09/10 03:51:49;;;;;;;15.33;12.43;;;17.40;99.90;;;;;;6124993;23;20451;-76
2022/09/10 03:54:16;;;;;;;5.77;5.20;;;17.40;99.90;;;;;;6123595;23;20475;-76
2022/09/10 03:56:44;;;;;;;10.00;9.00;;;17.40;99.90;;;;;;6125452;23;20928;-77
2022/09/10 03:59:14;;;;;;;7.00;6.33;;;17.40;99.90;;;;;;6124299;23;20438;-75
2022/09/10 04:01:41;;;;;;;10.77;7.40;;;17.40;99.90;;;;;;6125292;23;20492;-76
2022/09/10 04:04:09;;;;;;;6.10;5.50;;;17.30;99.90;;;;;;6124102;23;20715;-76
2022/09/10 04:06:36;;;;;;;4.90;3.93;;;17.30;99.90;;;;;;6125442;23;20438;-76
2022/09/10 04:09:04;;;;;;;5.30;4.37;;;17.40;99.90;;;;;;6123098;23;20536;-77
2022/09/10 04:11:30;;;;;;;6.60;5.17;;;17.30;99.90;;;;;;6114003;23;20436;-77
2022/09/10 04:13:59;;;;;;;3.80;3.50;;;17.30;99.90;;;;;;6126344;23;20470;-77
2022/09/10 04:16:32;;;;;;;6.67;5.40;;;17.30;99.90;;;;;;6125772;23;20508;-77
2022/09/10 04:18:59;;;;;;;9.00;7.50;;;17.20;99.90;;;;;;6124111;23;20922;-77
2022/09/10 04:21:28;;;;;;;21.37;13.43;;;17.30;99.90;;;;;;6130882;23;20440;-75
2022/09/10 04:23:55;;;;;;;10.50;9.17;;;17.20;99.90;;;;;;6123107;23;20450;-75
2022/09/10 04:26:23;;;;;;;6.20;5.60;;;17.20;99.90;;;;;;6137477;23;20422;-77
2022/09/10 04:28:50;;;;;;;6.67;6.03;;;17.30;99.90;;;;;;6126269;23;20462;-78
2022/09/10 04:31:18;;;;;;;4.47;3.90;;;17.20;99.90;;;;;;6126307;23;20444;-78
2022/09/10 04:33:47;;;;;;;7.23;3.00;;;17.20;99.90;;;;;;6137635;23;20441;-76
2022/09/10 04:36:16;;;;;;;2.60;2.40;;;17.20;99.90;;;;;;6131709;23;20474;-78
2022/09/10 04:38:45;;;;;;;3.80;3.40;;;17.20;99.90;;;;;;6136574;23;20439;-78
